createdAt,value
2023-03-10T00:01:30.412Z,54.96
2023-03-10T00:04:00.631Z,56.26
2023-03-10T00:06:34.090Z,58.03
2023-03-10T00:09:02.910Z,62.53
2023-03-10T00:11:31.081Z,67.46
2023-03-10T00:13:59.252Z,66.83
2023-03-10T00:16:28.974Z,65.42
2023-03-10T00:18:57.651Z,64.29
2023-03-10T00:21:28.385Z,62.97
2023-03-10T00:23:57.166Z,62.09
2023-03-10T00:26:28.202Z,61.23
2023-03-10T00:28:56.806Z,57.92
2023-03-10T00:31:27.286Z,55.09
2023-03-10T00:33:56.509Z,55.31
2023-03-10T00:36:30.019Z,56.48
2023-03-10T00:39:01.274Z,57.90
2023-03-10T00:41:31.939Z,62.93
2023-03-10T00:44:01.186Z,67.58
2023-03-10T00:46:30.346Z,67.16
2023-03-10T00:48:59.165Z,65.98
2023-03-10T00:51:27.652Z,64.26
2023-03-10T00:53:56.639Z,63.24
2023-03-10T00:56:26.169Z,62.29
2023-03-10T00:58:56.861Z,61.14
2023-03-10T01:01:35.388Z,57.96
2023-03-10T01:04:13.844Z,55.26
2023-03-10T01:06:44.422Z,56.11
2023-03-10T01:09:12.500Z,62.32
2023-03-10T01:11:40.981Z,65.83
2023-03-10T01:14:12.021Z,65.56
2023-03-10T01:16:40.295Z,64.54
2023-03-10T01:19:08.466Z,63.15
2023-03-10T01:21:38.879Z,62.70
2023-03-10T01:24:07.143Z,62.24
2023-03-10T01:26:35.659Z,63.02
2023-03-10T01:29:03.816Z,61.92
2023-03-10T01:31:32.224Z,61.72
2023-03-10T01:34:00.371Z,61.19
2023-03-10T01:36:29.155Z,60.35
2023-03-10T01:38:58.040Z,57.94
2023-03-10T01:41:26.534Z,57.09
2023-03-10T01:43:56.634Z,58.79
2023-03-10T01:46:40.229Z,64.34
2023-03-10T01:49:14.695Z,67.05
2023-03-10T01:51:43.986Z,66.41
2023-03-10T01:54:17.462Z,66.17
2023-03-10T01:56:46.373Z,64.53
2023-03-10T01:59:15.261Z,64.10
2023-03-10T02:01:43.687Z,63.43
2023-03-10T02:04:20.516Z,62.96
2023-03-10T02:06:52.078Z,61.92
2023-03-10T02:09:21.368Z,61.48
2023-03-10T02:11:49.948Z,60.94
2023-03-10T02:14:19.146Z,60.62
2023-03-10T02:16:47.676Z,57.84
2023-03-10T02:19:30.141Z,56.87
2023-03-10T02:22:09.458Z,57.89
2023-03-10T02:24:51.977Z,65.22
2023-03-10T02:27:22.885Z,66.79
2023-03-10T02:30:00.374Z,65.33
2023-03-10T02:32:35.047Z,64.61
2023-03-10T02:35:05.161Z,63.28
2023-03-10T02:37:35.573Z,62.97
2023-03-10T02:40:30.164Z,62.46
2023-03-10T02:43:23.218Z,62.18
2023-03-10T02:45:57.089Z,61.59
2023-03-10T02:48:31.701Z,60.89
2023-03-10T02:51:02.583Z,58.00
2023-03-10T02:53:30.854Z,56.30
2023-03-10T02:56:00.262Z,57.57
2023-03-10T02:58:31.603Z,62.46
2023-03-10T03:01:02.363Z,66.54
2023-03-10T03:03:31.346Z,65.99
2023-03-10T03:05:59.907Z,64.56
2023-03-10T03:08:28.908Z,63.46
2023-03-10T03:10:57.076Z,62.80
2023-03-10T03:13:25.450Z,61.98
2023-03-10T03:15:54.038Z,61.34
2023-03-10T03:18:23.536Z,60.82
2023-03-10T03:20:52.629Z,57.66
2023-03-10T03:23:20.901Z,55.47
2023-03-10T03:25:49.687Z,56.92
2023-03-10T03:28:19.905Z,57.65
2023-03-10T03:30:49.924Z,63.05
2023-03-10T03:33:18.502Z,67.54
2023-03-10T03:35:47.351Z,66.77
2023-03-10T03:38:17.614Z,65.23
2023-03-10T03:40:46.606Z,64.32
2023-03-10T03:43:16.011Z,63.51
2023-03-10T03:45:45.239Z,62.85
2023-03-10T03:48:15.011Z,62.11
2023-03-10T03:50:43.513Z,61.43
2023-03-10T03:53:20.268Z,60.74
2023-03-10T03:55:49.973Z,58.31
2023-03-10T03:58:19.685Z,55.88
2023-03-10T04:00:51.523Z,57.03
2023-03-10T04:03:20.455Z,61.72
2023-03-10T04:05:49.115Z,66.05
2023-03-10T04:08:17.592Z,65.38
2023-03-10T04:10:55.909Z,64.59
2023-03-10T04:13:26.327Z,63.43
2023-03-10T04:15:56.866Z,62.98
2023-03-10T04:18:25.541Z,62.50
2023-03-10T04:20:53.813Z,61.96
2023-03-10T04:23:22.103Z,61.65
2023-03-10T04:25:50.574Z,61.34
2023-03-10T04:28:19.684Z,60.97
2023-03-10T04:30:49.109Z,60.35
2023-03-10T04:33:18.671Z,56.95
2023-03-10T04:35:51.627Z,55.52
2023-03-10T04:38:23.830Z,56.24
2023-03-10T04:40:56.525Z,58.09
2023-03-10T04:43:29.315Z,62.55
2023-03-10T04:45:58.695Z,66.50
2023-03-10T04:48:27.577Z,65.90
2023-03-10T04:50:56.773Z,64.45
2023-03-10T04:53:25.449Z,63.31
2023-03-10T04:55:54.136Z,62.54
2023-03-10T04:58:23.127Z,61.80
2023-03-10T05:01:02.209Z,61.29
2023-03-10T05:03:31.761Z,61.11
2023-03-10T05:06:00.237Z,60.58
2023-03-10T05:08:29.034Z,58.19
2023-03-10T05:10:57.397Z,55.83
2023-03-10T05:13:25.570Z,56.73
2023-03-10T05:15:54.074Z,60.16
2023-03-10T05:18:22.325Z,65.29
2023-03-10T05:20:57.560Z,67.37
2023-03-10T05:23:27.269Z,66.89
2023-03-10T05:25:55.645Z,65.90
2023-03-10T05:28:24.741Z,64.96
2023-03-10T05:30:53.654Z,63.62
2023-03-10T05:33:22.015Z,62.55
2023-03-10T05:35:52.184Z,61.98
2023-03-10T05:38:20.603Z,61.64
2023-03-10T05:40:48.775Z,61.93
2023-03-10T05:43:17.853Z,61.81
2023-03-10T05:45:55.360Z,61.87
2023-03-10T05:48:24.229Z,62.06
2023-03-10T05:51:04.314Z,61.64
2023-03-10T05:53:33.599Z,61.01
2023-03-10T05:56:07.002Z,60.71
2023-03-10T05:58:35.375Z,60.54
2023-03-10T06:01:04.684Z,60.04
2023-03-10T06:03:33.652Z,57.56
2023-03-10T06:06:02.119Z,56.28
2023-03-10T06:08:30.727Z,59.16
2023-03-10T06:10:59.628Z,63.86
2023-03-10T06:13:27.882Z,66.40
2023-03-10T06:16:01.411Z,66.00
2023-03-10T06:18:30.279Z,64.90
2023-03-10T06:20:58.866Z,63.47
2023-03-10T06:23:27.242Z,63.00
2023-03-10T06:26:00.716Z,62.26
2023-03-10T06:28:33.274Z,61.97
2023-03-10T06:31:04.245Z,61.81
2023-03-10T06:33:32.825Z,61.51
2023-03-10T06:36:01.152Z,61.14
2023-03-10T06:38:30.604Z,60.45
2023-03-10T06:40:58.896Z,57.93
2023-03-10T06:43:27.153Z,56.96
2023-03-10T06:45:55.377Z,58.58
2023-03-10T06:48:23.602Z,64.23
2023-03-10T06:50:52.085Z,66.54
2023-03-10T06:53:21.586Z,65.89
2023-03-10T06:56:04.093Z,64.65
2023-03-10T06:58:34.627Z,63.75
2023-03-10T07:01:03.329Z,62.56
2023-03-10T07:03:31.693Z,62.11
2023-03-10T07:06:00.259Z,61.28
2023-03-10T07:08:29.459Z,60.31
2023-03-10T07:10:57.684Z,60.26
2023-03-10T07:13:26.018Z,58.32
2023-03-10T07:15:54.177Z,57.53
2023-03-10T07:18:22.661Z,58.74
2023-03-10T07:20:53.187Z,63.85
2023-03-10T07:23:21.362Z,66.94
2023-03-10T07:25:57.109Z,67.17
2023-03-10T07:28:26.098Z,64.94
2023-03-10T07:30:56.759Z,62.97
2023-03-10T07:33:24.897Z,62.40
2023-03-10T07:35:53.118Z,61.87
2023-03-10T07:38:21.345Z,61.45
2023-03-10T07:40:49.425Z,61.00
2023-03-10T07:43:18.238Z,58.35
2023-03-10T07:45:46.826Z,56.20
2023-03-10T07:48:15.061Z,57.47
2023-03-10T07:50:43.232Z,62.34
2023-03-10T07:53:11.404Z,65.81
2023-03-10T07:55:39.583Z,64.80
2023-03-10T07:58:07.968Z,63.63
2023-03-10T08:00:36.161Z,62.53
2023-03-10T08:03:04.399Z,61.56
2023-03-10T08:05:32.571Z,61.08
2023-03-10T08:08:00.847Z,57.90
2023-03-10T08:10:29.027Z,56.74
2023-03-10T08:12:57.189Z,59.02
2023-03-10T08:15:26.692Z,63.42
2023-03-10T08:17:54.763Z,65.96
2023-03-10T08:20:23.139Z,63.68
2023-03-10T08:22:53.518Z,61.44
2023-03-10T08:25:21.635Z,61.08
2023-03-10T08:27:50.115Z,60.94
2023-03-10T08:30:18.695Z,60.20
2023-03-10T08:32:46.902Z,57.39
2023-03-10T08:35:16.982Z,56.45
2023-03-10T08:37:45.260Z,58.38
2023-03-10T08:40:16.339Z,62.88
2023-03-10T08:42:47.036Z,65.54
2023-03-10T08:45:16.534Z,63.35
2023-03-10T08:47:45.122Z,61.96
2023-03-10T08:50:13.603Z,61.05
2023-03-10T08:52:41.873Z,57.44
2023-03-10T08:55:11.290Z,57.31
2023-03-10T08:57:39.650Z,58.84
2023-03-10T09:00:12.448Z,62.92
2023-03-10T09:02:40.766Z,65.08
2023-03-10T09:05:10.625Z,62.82
2023-03-10T09:07:39.016Z,60.82
2023-03-10T09:10:07.783Z,57.86
2023-03-10T09:12:38.741Z,56.90
2023-03-10T09:15:07.903Z,58.69
2023-03-10T09:17:37.233Z,63.07
2023-03-10T09:20:07.401Z,63.87
2023-03-10T09:22:35.508Z,62.18
2023-03-10T09:25:04.289Z,58.23
2023-03-10T09:27:32.462Z,58.09
2023-03-10T09:30:01.551Z,59.14
2023-03-10T09:32:30.181Z,62.26
2023-03-10T09:34:58.413Z,62.92
2023-03-10T09:37:26.688Z,61.19
2023-03-10T09:39:54.879Z,58.51
2023-03-10T09:42:37.832Z,56.84
2023-03-10T09:45:19.169Z,58.21
2023-03-10T09:47:55.758Z,59.32
2023-03-10T09:50:41.412Z,60.35
2023-03-10T09:54:04.373Z,63.87
2023-03-10T09:56:34.385Z,61.83
2023-03-10T09:59:14.639Z,57.69
2023-03-10T10:01:48.750Z,56.60
2023-03-10T10:04:26.084Z,57.87
2023-03-10T10:06:55.234Z,59.29
2023-03-10T10:09:23.305Z,60.61
2023-03-10T10:11:51.574Z,63.47
2023-03-10T10:14:28.809Z,63.22
2023-03-10T10:17:19.707Z,58.84
2023-03-10T10:19:48.247Z,56.68
2023-03-10T10:22:24.385Z,56.66
2023-03-10T10:25:01.690Z,58.11
2023-03-10T10:27:33.151Z,57.95
2023-03-10T10:30:31.263Z,61.03
2023-03-10T10:33:02.160Z,60.35
2023-03-10T10:35:36.373Z,61.13
2023-03-10T10:38:24.606Z,62.65
2023-03-10T10:41:07.165Z,62.91
2023-03-10T10:43:45.529Z,55.66
2023-03-10T10:46:16.001Z,54.82
2023-03-10T10:48:46.796Z,55.44
2023-03-10T10:51:21.010Z,56.09
2023-03-10T10:53:49.274Z,57.52
2023-03-10T10:56:19.029Z,58.81
2023-03-10T10:59:04.879Z,59.37
2023-03-10T11:01:53.014Z,59.86
2023-03-10T11:04:22.427Z,59.58
2023-03-10T11:06:51.302Z,59.93
2023-03-10T11:09:21.944Z,59.39
2023-03-10T11:11:59.216Z,59.80
2023-03-10T11:14:33.226Z,59.85
2023-03-10T11:17:05.212Z,60.28
2023-03-10T11:19:46.123Z,59.39
2023-03-10T11:22:37.800Z,59.76
2023-03-10T11:25:19.674Z,60.29
2023-03-10T11:28:12.627Z,60.35
2023-03-10T11:31:11.874Z,60.49
2023-03-10T11:33:49.112Z,61.08
2023-03-10T11:36:24.143Z,60.75
2023-03-10T11:38:58.438Z,60.95
2023-03-10T11:41:33.776Z,60.94
2023-03-10T11:44:07.709Z,60.45
2023-03-10T11:46:48.334Z,60.90
2023-03-10T11:49:17.671Z,61.20
2023-03-10T11:51:49.309Z,61.22
2023-03-10T11:54:27.093Z,61.45
2023-03-10T11:56:55.910Z,63.82
2023-03-10T11:59:27.393Z,62.71
2023-03-10T12:02:04.971Z,57.76
2023-03-10T12:04:43.467Z,54.43
2023-03-10T12:07:27.816Z,54.62
2023-03-10T12:10:01.143Z,55.01
2023-03-10T12:12:36.853Z,55.29
2023-03-10T12:15:10.561Z,55.25
2023-03-10T12:17:39.961Z,56.47
2023-03-10T12:20:13.168Z,56.15
2023-03-10T12:22:51.772Z,56.45
2023-03-10T12:25:29.264Z,56.48
2023-03-10T12:28:15.964Z,57.23
2023-03-10T12:30:59.804Z,57.85
2023-03-10T12:33:31.156Z,57.62
2023-03-10T12:36:27.424Z,57.98
2023-03-10T12:39:16.953Z,57.76
2023-03-10T12:41:48.205Z,58.25
2023-03-10T12:44:35.417Z,58.67
2023-03-10T12:47:09.677Z,57.70
2023-03-10T12:49:40.978Z,56.86
2023-03-10T12:52:39.840Z,56.71
2023-03-10T12:55:17.202Z,56.98
2023-03-10T12:57:54.441Z,57.23
2023-03-10T13:00:41.201Z,57.22
2023-03-10T13:03:35.684Z,57.42
2023-03-10T13:06:07.512Z,57.28
2023-03-10T13:08:54.098Z,56.86
2023-03-10T13:11:31.393Z,56.73
2023-03-10T13:14:22.192Z,56.88
2023-03-10T13:17:00.369Z,57.29
2023-03-10T13:19:34.635Z,57.24
2023-03-10T13:22:05.116Z,57.50
2023-03-10T13:24:39.230Z,57.78
2023-03-10T13:27:25.115Z,57.69
2023-03-10T13:29:59.648Z,57.80
2023-03-10T13:32:29.291Z,58.46
2023-03-10T13:34:59.076Z,58.54
2023-03-10T13:37:27.255Z,58.62
2023-03-10T13:40:07.915Z,58.29
2023-03-10T13:42:43.775Z,57.28
2023-03-10T13:45:21.053Z,57.26
2023-03-10T13:47:50.367Z,57.24
2023-03-10T13:50:18.830Z,56.53
2023-03-10T13:52:57.558Z,56.49
2023-03-10T13:55:27.671Z,56.19
2023-03-10T13:57:56.398Z,56.00
2023-03-10T14:00:26.331Z,55.47
2023-03-10T14:02:55.358Z,55.64
2023-03-10T14:05:45.849Z,56.12
2023-03-10T14:08:33.995Z,56.70
2023-03-10T14:11:29.912Z,56.27
2023-03-10T14:13:58.493Z,55.87
2023-03-10T14:17:02.223Z,55.91
2023-03-10T14:19:42.622Z,56.18
2023-03-10T14:22:43.906Z,55.60
2023-03-10T14:25:18.326Z,55.35
2023-03-10T14:27:49.258Z,55.28
2023-03-10T14:30:30.606Z,53.95
2023-03-10T14:33:00.827Z,53.14
2023-03-10T14:35:29.363Z,52.76
2023-03-10T14:37:57.743Z,52.76
2023-03-10T14:40:26.200Z,53.60
2023-03-10T14:42:58.262Z,53.65
2023-03-10T14:45:33.634Z,54.29
2023-03-10T14:48:04.882Z,54.53
2023-03-10T14:50:33.630Z,54.50
2023-03-10T14:53:01.802Z,54.49
2023-03-10T14:55:30.178Z,53.95
2023-03-10T14:58:02.452Z,53.89
2023-03-10T15:00:31.237Z,53.88
2023-03-10T15:02:59.917Z,53.91
2023-03-10T15:05:45.168Z,54.08
2023-03-10T15:08:16.986Z,54.19
2023-03-10T15:10:51.024Z,54.35
2023-03-10T15:13:24.556Z,54.68
2023-03-10T15:15:53.382Z,55.19
2023-03-10T15:18:23.462Z,55.11
2023-03-10T15:20:51.777Z,55.52
2023-03-10T15:23:22.513Z,55.79
2023-03-10T15:25:50.861Z,55.80
2023-03-10T15:28:19.163Z,55.52
2023-03-10T15:30:47.541Z,55.70
2023-03-10T15:33:16.192Z,56.01
2023-03-10T15:35:44.510Z,56.17
2023-03-10T15:38:14.787Z,56.38
2023-03-10T15:40:44.899Z,56.89
2023-03-10T15:43:13.273Z,56.83
2023-03-10T15:45:43.719Z,56.71
2023-03-10T15:48:12.222Z,57.26
2023-03-10T15:50:45.062Z,57.85
2023-03-10T15:53:13.541Z,58.07
2023-03-10T15:55:42.538Z,58.39
2023-03-10T15:58:11.637Z,58.76
2023-03-10T16:00:40.112Z,59.00
2023-03-10T16:03:08.278Z,59.34
2023-03-10T16:05:37.888Z,59.82
2023-03-10T16:08:06.565Z,59.94
2023-03-10T16:10:40.166Z,60.20
2023-03-10T16:13:08.340Z,60.61
2023-03-10T16:15:38.641Z,61.15
2023-03-10T16:18:06.732Z,61.26
2023-03-10T16:20:34.915Z,61.39
2023-03-10T16:23:03.080Z,64.76
2023-03-10T16:25:31.653Z,68.49
2023-03-10T16:27:59.841Z,67.32
2023-03-10T16:30:28.072Z,63.26
2023-03-10T16:33:00.981Z,59.45
2023-03-10T16:35:30.289Z,55.90
2023-03-10T16:38:01.325Z,54.91
2023-03-10T16:40:29.493Z,55.57
2023-03-10T16:42:57.567Z,55.88
2023-03-10T16:45:25.751Z,56.59
2023-03-10T16:47:53.908Z,57.24
2023-03-10T16:50:22.081Z,57.83
2023-03-10T16:52:55.268Z,58.71
2023-03-10T16:55:23.645Z,59.26
2023-03-10T16:57:51.818Z,60.01
2023-03-10T17:00:21.194Z,60.69
2023-03-10T17:02:50.012Z,64.43
2023-03-10T17:05:18.394Z,68.73
2023-03-10T17:07:55.516Z,67.27
2023-03-10T17:10:24.146Z,65.88
2023-03-10T17:12:52.334Z,60.30
2023-03-10T17:15:20.604Z,55.96
2023-03-10T17:17:48.764Z,55.23
2023-03-10T17:20:18.615Z,55.85
2023-03-10T17:22:46.750Z,56.38
2023-03-10T17:25:15.231Z,57.29
2023-03-10T17:27:43.753Z,58.02
2023-03-10T17:30:14.012Z,59.16
2023-03-10T17:32:42.287Z,61.41
2023-03-10T17:35:10.581Z,66.39
2023-03-10T17:37:38.853Z,68.11
2023-03-10T17:40:09.560Z,65.48
2023-03-10T17:42:37.761Z,62.95
2023-03-10T17:45:06.995Z,58.72
2023-03-10T17:47:35.550Z,56.14
2023-03-10T17:50:04.039Z,56.82
2023-03-10T17:52:32.293Z,57.72
2023-03-10T17:55:01.190Z,59.06
2023-03-10T17:57:29.357Z,59.98
2023-03-10T17:59:57.533Z,64.00
2023-03-10T18:02:26.043Z,65.84
2023-03-10T18:04:54.487Z,61.03
2023-03-10T18:07:22.558Z,56.86
2023-03-10T18:09:50.735Z,55.30
2023-03-10T18:12:18.906Z,57.16
2023-03-10T18:14:47.076Z,58.13
2023-03-10T18:17:15.250Z,59.49
2023-03-10T18:19:43.421Z,60.87
2023-03-10T18:22:11.695Z,63.79
2023-03-10T18:24:39.868Z,64.42
2023-03-10T18:27:08.250Z,61.50
2023-03-10T18:29:36.625Z,56.87
2023-03-10T18:32:05.199Z,56.37
2023-03-10T18:34:33.393Z,57.94
2023-03-10T18:37:01.662Z,59.90
2023-03-10T18:39:30.126Z,60.91
2023-03-10T18:41:58.202Z,64.42
2023-03-10T18:44:26.368Z,65.41
2023-03-10T18:46:54.540Z,62.64
2023-03-10T18:49:22.923Z,58.20
2023-03-10T18:51:51.192Z,56.73
2023-03-10T18:54:19.671Z,58.30
2023-03-10T18:56:47.845Z,59.62
2023-03-10T18:59:16.017Z,63.22
2023-03-10T19:01:44.239Z,64.78
2023-03-10T19:04:12.566Z,63.19
2023-03-10T19:06:40.943Z,59.39
2023-03-10T19:09:09.216Z,57.77
2023-03-10T19:11:38.677Z,59.15
2023-03-10T19:14:07.212Z,60.31
2023-03-10T19:16:39.884Z,64.32
2023-03-10T19:19:08.048Z,66.39
2023-03-10T19:21:37.555Z,64.16
2023-03-10T19:24:06.229Z,62.05
2023-03-10T19:26:34.508Z,59.30
2023-03-10T19:29:03.518Z,56.56
2023-03-10T19:31:31.792Z,57.83
2023-03-10T19:33:59.949Z,58.44
2023-03-10T19:36:29.670Z,60.47
2023-03-10T19:38:58.345Z,64.26
2023-03-10T19:41:26.717Z,67.20
2023-03-10T19:43:54.891Z,65.90
2023-03-10T19:46:23.092Z,64.55
2023-03-10T19:48:51.266Z,63.27
2023-03-10T19:51:22.700Z,58.95
2023-03-10T19:53:52.666Z,55.88
2023-03-10T19:56:21.795Z,56.04
2023-03-10T19:58:50.488Z,57.26
2023-03-10T20:01:24.513Z,58.12
2023-03-10T20:03:54.891Z,62.40
2023-03-10T20:06:23.713Z,66.19
2023-03-10T20:08:52.382Z,65.59
2023-03-10T20:11:21.786Z,64.17
2023-03-10T20:13:52.313Z,62.85
2023-03-10T20:16:22.781Z,58.93
2023-03-10T20:18:50.931Z,55.36
2023-03-10T20:21:19.080Z,54.23
2023-03-10T20:23:48.723Z,56.72
2023-03-10T20:26:18.205Z,58.14
2023-03-10T20:28:46.674Z,61.74
2023-03-10T20:31:20.148Z,66.26
2023-03-10T20:33:48.543Z,65.86
2023-03-10T20:36:16.717Z,63.91
2023-03-10T20:38:46.540Z,62.66
2023-03-10T20:41:16.244Z,59.05
2023-03-10T20:43:44.528Z,56.61
2023-03-10T20:46:13.550Z,56.88
2023-03-10T20:48:41.775Z,58.09
2023-03-10T20:51:09.947Z,61.79
2023-03-10T20:53:38.124Z,65.84
2023-03-10T20:56:10.403Z,65.37
2023-03-10T20:58:38.725Z,63.55
2023-03-10T21:01:07.110Z,62.22
2023-03-10T21:03:35.419Z,59.03
2023-03-10T21:06:03.790Z,56.35
2023-03-10T21:08:31.964Z,57.08
2023-03-10T21:11:00.364Z,58.45
2023-03-10T21:13:28.614Z,62.06
2023-03-10T21:15:56.786Z,66.15
2023-03-10T21:18:26.088Z,65.39
2023-03-10T21:20:54.273Z,63.54
2023-03-10T21:23:22.537Z,62.33
2023-03-10T21:25:50.712Z,58.81
2023-03-10T21:28:19.001Z,55.75
2023-03-10T21:30:47.179Z,56.14
2023-03-10T21:33:15.534Z,57.01
2023-03-10T21:35:43.719Z,58.36
2023-03-10T21:38:11.986Z,59.25
2023-03-10T21:40:40.369Z,63.45
2023-03-10T21:43:09.667Z,67.14
2023-03-10T21:45:38.658Z,66.21
2023-03-10T21:48:06.926Z,64.68
2023-03-10T21:50:35.213Z,62.80
2023-03-10T21:53:03.660Z,58.91
2023-03-10T21:55:34.718Z,55.58
2023-03-10T21:58:03.606Z,55.81
2023-03-10T22:00:32.604Z,56.92
2023-03-10T22:03:00.773Z,58.22
2023-03-10T22:05:29.150Z,62.33
2023-03-10T22:07:57.422Z,66.26
2023-03-10T22:10:25.697Z,65.57
2023-03-10T22:12:53.868Z,64.09
2023-03-10T22:15:25.321Z,62.03
2023-03-10T22:17:55.428Z,58.24
2023-03-10T22:20:26.459Z,55.01
2023-03-10T22:22:54.648Z,55.31
2023-03-10T22:25:23.336Z,56.32
2023-03-10T22:27:53.968Z,57.37
2023-03-10T22:30:26.330Z,58.68
2023-03-10T22:32:55.274Z,62.42
2023-03-10T22:35:24.311Z,66.29
2023-03-10T22:37:52.789Z,65.24
2023-03-10T22:40:23.219Z,63.75
2023-03-10T22:42:51.383Z,59.04
2023-03-10T22:45:23.642Z,56.07
2023-03-10T22:47:57.261Z,56.52
2023-03-10T22:50:32.646Z,57.25
2023-03-10T22:53:06.429Z,58.45
2023-03-10T22:55:37.640Z,62.86
2023-03-10T22:58:07.657Z,67.08
2023-03-10T23:00:36.245Z,66.05
2023-03-10T23:03:05.925Z,64.07
2023-03-10T23:05:34.443Z,59.28
2023-03-10T23:08:02.504Z,56.14
2023-03-10T23:10:32.704Z,56.98
2023-03-10T23:13:02.739Z,58.11
2023-03-10T23:15:33.788Z,59.52
2023-03-10T23:18:02.262Z,64.44
2023-03-10T23:20:34.116Z,67.03
2023-03-10T23:23:04.006Z,65.92
2023-03-10T23:25:41.011Z,63.39
2023-03-10T23:28:10.932Z,62.06
2023-03-10T23:30:41.036Z,58.07
2023-03-10T23:33:12.564Z,56.45
2023-03-10T23:35:41.336Z,57.81
2023-03-10T23:38:10.159Z,60.12
2023-03-10T23:40:38.636Z,63.93
2023-03-10T23:43:08.151Z,66.35
2023-03-10T23:45:38.317Z,65.38
2023-03-10T23:48:09.278Z,64.04
2023-03-10T23:50:40.446Z,61.66
2023-03-10T23:53:10.558Z,60.61
2023-03-10T23:55:40.933Z,57.80
2023-03-10T23:58:10.277Z,58.01
